createdAt,value
2023-01-28T00:02:48.548Z,102738.63
2023-01-28T00:05:50.203Z,102733.41
2023-01-28T00:08:51.779Z,102736.03
2023-01-28T00:11:53.521Z,102730.75
2023-01-28T00:14:55.137Z,102731.63
2023-01-28T00:17:56.702Z,102722.84
2023-01-28T00:21:08.390Z,102722.88
2023-01-28T00:24:10.023Z,102726.34
2023-01-28T00:27:12.032Z,102723.69
2023-01-28T00:30:14.045Z,102728.06
2023-01-28T00:33:15.662Z,102721.09
2023-01-28T00:36:19.034Z,102718.44
2023-01-28T00:39:20.579Z,102716.69
2023-01-28T00:42:22.094Z,102718.41
2023-01-28T00:45:23.704Z,102724.53
2023-01-28T00:48:25.261Z,102720.16
2023-01-28T00:51:26.816Z,102721.06
2023-01-28T00:54:28.410Z,102726.31
2023-01-28T00:57:29.961Z,102725.38
2023-01-28T01:00:31.597Z,102739.38
2023-01-28T01:03:33.202Z,102728.00
2023-01-28T01:06:39.740Z,102725.38
2023-01-28T01:09:41.461Z,102721.84
2023-01-28T01:12:43.072Z,102722.75
2023-01-28T01:15:44.680Z,102719.25
2023-01-28T01:18:46.392Z,102719.25
2023-01-28T01:21:50.835Z,102715.75
2023-01-28T01:24:52.485Z,102718.34
2023-01-28T01:27:54.062Z,102714.84
2023-01-28T01:31:07.612Z,102714.81
2023-01-28T01:34:09.768Z,102711.31
2023-01-28T01:37:11.447Z,102711.28
2023-01-28T01:40:13.191Z,102708.69
2023-01-28T01:43:20.053Z,102708.66
2023-01-28T01:46:28.865Z,102711.25
2023-01-28T01:49:30.492Z,102712.13
2023-01-28T01:52:35.310Z,102710.34
2023-01-28T01:55:41.205Z,102709.47
2023-01-28T01:58:46.079Z,102709.44
2023-01-28T02:01:48.563Z,102718.13
2023-01-28T02:04:50.229Z,102728.56
2023-01-28T02:08:17.429Z,102728.56
2023-01-28T02:11:19.027Z,102717.19
2023-01-28T02:14:30.896Z,102718.91
2023-01-28T02:17:33.180Z,102725.88
2023-01-28T02:20:37.742Z,102724.16
2023-01-28T02:24:10.322Z,102722.38
2023-01-28T02:27:21.493Z,102716.22
2023-01-28T02:30:32.716Z,102732.78
2023-01-28T02:33:52.665Z,102740.63
2023-01-28T02:37:04.022Z,102738.00
2023-01-28T02:40:11.390Z,102723.16
2023-01-28T02:43:14.975Z,102739.69
2023-01-28T02:46:44.371Z,102733.63
2023-01-28T02:49:53.538Z,102730.09
2023-01-28T02:53:43.898Z,102723.13
2023-01-28T02:57:16.736Z,102719.59
2023-01-28T03:00:41.681Z,102725.66
2023-01-28T03:04:08.430Z,102715.16
2023-01-28T03:07:12.600Z,102724.75
2023-01-28T03:10:18.621Z,102717.78
2023-01-28T03:13:38.733Z,102723.88
2023-01-28T03:16:59.694Z,102722.09
2023-01-28T03:20:20.020Z,102725.59
2023-01-28T03:23:46.934Z,102728.19
2023-01-28T03:27:17.040Z,102731.69
2023-01-28T03:30:42.575Z,102729.03
2023-01-28T03:34:03.824Z,102734.22
2023-01-28T03:37:05.419Z,102734.22
2023-01-28T03:40:08.563Z,102729.84
2023-01-28T03:43:10.131Z,102734.19
2023-01-28T03:46:11.730Z,102737.69
2023-01-28T03:49:13.386Z,102729.84
2023-01-28T03:52:19.499Z,102732.47
2023-01-28T03:55:21.081Z,102728.03
2023-01-28T03:58:27.283Z,102723.69
2023-01-28T04:01:28.898Z,102715.81
2023-01-28T04:04:32.647Z,102715.78
2023-01-28T04:07:34.344Z,102713.13
2023-01-28T04:10:36.004Z,102721.81
2023-01-28T04:13:37.550Z,102732.28
2023-01-28T04:16:39.269Z,102733.09
2023-01-28T04:19:41.084Z,102725.19
2023-01-28T04:22:43.452Z,102726.03
2023-01-28T04:25:45.076Z,102723.44
2023-01-28T04:28:46.601Z,102729.50
2023-01-28T04:31:48.192Z,102719.00
2023-01-28T04:34:49.715Z,102732.94
2023-01-28T04:37:51.281Z,102724.19
2023-01-28T04:40:53.758Z,102726.81
2023-01-28T04:43:56.201Z,102728.50
2023-01-28T04:46:57.779Z,102721.53
2023-01-28T04:49:59.280Z,102718.91
2023-01-28T04:53:00.824Z,102712.75
2023-01-28T04:56:02.439Z,102713.59
2023-01-28T04:59:04.006Z,102714.44
2023-01-28T05:02:05.638Z,102710.94
2023-01-28T05:05:09.030Z,102716.13
2023-01-28T05:08:10.630Z,102710.91
2023-01-28T05:11:13.306Z,102706.50
2023-01-28T05:14:14.932Z,102698.63
2023-01-28T05:17:16.519Z,102692.50
2023-01-28T05:20:18.111Z,102696.81
2023-01-28T05:23:19.704Z,102692.47
2023-01-28T05:26:21.560Z,102688.03
2023-01-28T05:29:23.139Z,102677.53
2023-01-28T05:32:25.167Z,102691.41
2023-01-28T05:35:26.877Z,102688.75
2023-01-28T05:38:28.433Z,102674.75
2023-01-28T05:41:30.043Z,102683.41
2023-01-28T05:44:31.629Z,102679.88
2023-01-28T05:47:34.254Z,102688.78
2023-01-28T05:50:35.902Z,102685.28
2023-01-28T05:53:37.514Z,102683.50
2023-01-28T05:56:40.333Z,102680.81
2023-01-28T05:59:41.913Z,102672.88
2023-01-28T06:02:43.847Z,102676.25
2023-01-28T06:05:45.420Z,102665.75
2023-01-28T06:08:47.102Z,102672.66
2023-01-28T06:11:50.335Z,102683.06
2023-01-28T06:14:51.919Z,102687.38
2023-01-28T06:17:53.461Z,102671.72
2023-01-28T06:20:55.098Z,102672.56
2023-01-28T06:23:56.711Z,102667.28
2023-01-28T06:26:58.556Z,102665.50
2023-01-28T06:30:00.145Z,102660.28
2023-01-28T06:33:01.866Z,102667.19
2023-01-28T06:36:04.645Z,102668.00
2023-01-28T06:39:06.191Z,102674.13
2023-01-28T06:42:07.788Z,102681.06
2023-01-28T06:45:09.717Z,102689.78
2023-01-28T06:48:11.256Z,102681.94
2023-01-28T06:51:12.854Z,102689.78
2023-01-28T06:54:14.765Z,102691.50
2023-01-28T06:57:16.301Z,102695.00
2023-01-28T07:00:18.796Z,102696.72
2023-01-28T07:03:20.553Z,102692.72
2023-01-28T07:06:22.127Z,102705.84
2023-01-28T07:09:23.714Z,102714.50
2023-01-28T07:12:25.316Z,102717.94
2023-01-28T07:15:27.721Z,102721.28
2023-01-28T07:18:29.331Z,102735.13
2023-01-28T07:21:31.020Z,102730.72
2023-01-28T07:24:33.050Z,102736.72
2023-01-28T07:27:34.639Z,102739.25
2023-01-28T07:30:36.142Z,102736.59
2023-01-28T07:33:37.699Z,102740.88
2023-01-28T07:36:39.353Z,102736.53
2023-01-28T07:39:40.848Z,102730.38
2023-01-28T07:42:42.390Z,102741.75
2023-01-28T07:45:43.930Z,102743.41
2023-01-28T07:48:45.790Z,102743.41
2023-01-28T07:51:48.944Z,102752.91
2023-01-28T07:54:50.493Z,102753.72
2023-01-28T07:57:58.590Z,102758.03
2023-01-28T08:01:00.956Z,102752.81
2023-01-28T08:04:02.668Z,102754.63
2023-01-28T08:07:07.214Z,102761.69
2023-01-28T08:10:11.063Z,102752.22
2023-01-28T08:13:14.036Z,102753.16
2023-01-28T08:16:15.747Z,102769.78
2023-01-28T08:19:18.353Z,102750.72
2023-01-28T08:22:25.343Z,102743.84
2023-01-28T08:25:26.853Z,102744.78
2023-01-28T08:28:28.524Z,102758.06
2023-01-28T08:31:30.089Z,102746.84
2023-01-28T08:34:31.726Z,102742.56
2023-01-28T08:37:33.288Z,102752.34
2023-01-28T08:40:35.524Z,102762.84
2023-01-28T08:43:37.143Z,102762.88
2023-01-28T08:46:38.826Z,102755.09
2023-01-28T08:49:40.564Z,102759.53
2023-01-28T08:52:44.463Z,102760.53
2023-01-28T08:55:46.861Z,102777.19
2023-01-28T08:58:48.403Z,102782.50
2023-01-28T09:01:49.946Z,102789.56
2023-01-28T09:04:51.547Z,102791.34
2023-01-28T09:07:53.138Z,102802.78
2023-01-28T09:10:56.513Z,102798.47
2023-01-28T09:13:58.835Z,102814.22
2023-01-28T09:17:01.730Z,102813.41
2023-01-28T09:20:04.605Z,102805.63
2023-01-28T09:23:06.926Z,102810.03
2023-01-28T09:26:09.479Z,102822.28
2023-01-28T09:29:11.101Z,102822.31
2023-01-28T09:32:12.729Z,102823.28
2023-01-28T09:35:15.318Z,102818.09
2023-01-28T09:38:16.946Z,102822.47
2023-01-28T09:41:25.619Z,102815.56
2023-01-28T09:44:59.302Z,102814.72
2023-01-28T09:48:03.829Z,102810.44
2023-01-28T09:51:10.715Z,102800.88
2023-01-28T09:54:22.122Z,102812.28
2023-01-28T09:57:26.335Z,102801.84
2023-01-28T10:00:56.123Z,102802.84
2023-01-28T10:04:17.738Z,102799.38
2023-01-28T10:07:25.353Z,102803.81
2023-01-28T10:10:34.040Z,102788.09
2023-01-28T10:13:57.060Z,102796.03
2023-01-28T10:17:25.738Z,102777.69
2023-01-28T10:20:36.149Z,102790.81
2023-01-28T10:23:58.590Z,102780.41
2023-01-28T10:27:00.951Z,102769.94
2023-01-28T10:30:25.557Z,102763.91
2023-01-28T10:33:39.989Z,102758.69
2023-01-28T10:36:42.413Z,102756.09
2023-01-28T10:39:45.160Z,102760.56
2023-01-28T10:42:46.702Z,102740.47
2023-01-28T10:46:10.835Z,102741.34
2023-01-28T10:49:15.419Z,102746.63
2023-01-28T10:52:18.527Z,102739.63
2023-01-28T10:55:20.126Z,102736.13
2023-01-28T10:58:25.441Z,102735.25
2023-01-28T11:01:39.260Z,102715.13
2023-01-28T11:04:40.795Z,102705.50
2023-01-28T11:07:42.522Z,102681.84
2023-01-28T11:10:45.630Z,102655.47
2023-01-28T11:13:51.332Z,102647.28
2023-01-28T11:16:56.459Z,102640.13
2023-01-28T11:20:11.192Z,102645.38
2023-01-28T11:23:24.893Z,102660.28
2023-01-28T11:26:31.198Z,102675.19
2023-01-28T11:29:34.851Z,102682.25
2023-01-28T11:32:36.505Z,102676.13
2023-01-28T11:35:38.114Z,102668.28
2023-01-28T11:38:52.070Z,102677.06
2023-01-28T11:41:54.380Z,102674.44
2023-01-28T11:44:56.007Z,102692.00
2023-01-28T11:48:00.277Z,102693.75
2023-01-28T11:51:17.261Z,102674.44
2023-01-28T11:54:38.009Z,102679.72
2023-01-28T11:57:52.464Z,102669.22
2023-01-28T12:00:59.838Z,102670.97
2023-01-28T12:04:10.378Z,102673.59
2023-01-28T12:07:11.905Z,102678.00
2023-01-28T12:10:26.876Z,102673.59
2023-01-28T12:14:07.062Z,102671.84
2023-01-28T12:17:33.581Z,102659.53
2023-01-28T12:20:59.377Z,102668.31
2023-01-28T12:24:14.495Z,102663.94
2023-01-28T12:27:55.925Z,102642.91
2023-01-28T12:31:15.599Z,102635.94
2023-01-28T12:34:39.105Z,102628.91
2023-01-28T12:38:14.617Z,102594.75
2023-01-28T12:41:21.367Z,102602.69
2023-01-28T12:44:38.156Z,102614.97
2023-01-28T12:47:43.901Z,102629.03
2023-01-28T12:50:53.597Z,102622.91
2023-01-28T12:53:59.023Z,102622.00
2023-01-28T12:57:03.134Z,102619.34
2023-01-28T13:00:23.423Z,102617.59
2023-01-28T13:03:35.379Z,102616.66
2023-01-28T13:06:57.033Z,102606.91
2023-01-28T13:10:20.643Z,102610.44
2023-01-28T13:13:35.983Z,102613.94
2023-01-28T13:16:38.241Z,102615.72
2023-01-28T13:19:41.999Z,102617.50
2023-01-28T13:22:45.858Z,102612.22
2023-01-28T13:25:53.514Z,102618.34
2023-01-28T13:29:08.365Z,102623.56
2023-01-28T13:32:36.966Z,102621.81
2023-01-28T13:35:40.972Z,102615.72
2023-01-28T13:38:43.566Z,102613.94
2023-01-28T13:41:47.781Z,102614.78
2023-01-28T13:44:49.552Z,102616.53
2023-01-28T13:48:01.372Z,102610.38
2023-01-28T13:51:04.437Z,102605.97
2023-01-28T13:54:17.101Z,102605.09
2023-01-28T13:57:24.656Z,102605.06
2023-01-28T14:00:50.194Z,102612.94
2023-01-28T14:04:19.403Z,102599.78
2023-01-28T14:07:48.479Z,102599.78
2023-01-28T14:11:12.588Z,102606.81
2023-01-28T14:14:32.910Z,102610.31
2023-01-28T14:17:49.699Z,102607.66
2023-01-28T14:20:53.455Z,102611.16
2023-01-28T14:23:57.355Z,102618.19
2023-01-28T14:27:08.229Z,102610.31
2023-01-28T14:30:25.880Z,102598.03
2023-01-28T14:33:27.907Z,102598.91
2023-01-28T14:36:30.403Z,102600.66
2023-01-28T14:39:53.618Z,102611.19
2023-01-28T14:42:56.434Z,102619.06
2023-01-28T14:46:23.339Z,102628.72
2023-01-28T14:49:46.418Z,102631.34
2023-01-28T14:53:15.839Z,102633.97
2023-01-28T14:57:01.254Z,102631.38
2023-01-28T15:00:16.638Z,102626.97
2023-01-28T15:03:26.252Z,102635.78
2023-01-28T15:06:35.622Z,102630.50
2023-01-28T15:09:37.222Z,102636.66
2023-01-28T15:12:41.122Z,102647.19
2023-01-28T15:15:47.521Z,102644.56
2023-01-28T15:18:50.982Z,102635.75
2023-01-28T15:21:57.084Z,102634.03
2023-01-28T15:24:58.762Z,102623.50
2023-01-28T15:28:01.747Z,102602.44
2023-01-28T15:31:03.764Z,102591.94
2023-01-28T15:34:16.767Z,102594.59
2023-01-28T15:37:19.283Z,102593.72
2023-01-28T15:40:22.730Z,102591.97
2023-01-28T15:43:30.539Z,102595.50
2023-01-28T15:46:32.445Z,102604.31
2023-01-28T15:49:41.611Z,102592.03
2023-01-28T15:52:45.411Z,102592.94
2023-01-28T15:55:46.997Z,102591.22
2023-01-28T15:58:48.538Z,102604.38
2023-01-28T16:01:50.222Z,102607.03
2023-01-28T16:05:03.775Z,102602.63
2023-01-28T16:08:27.652Z,102593.03
2023-01-28T16:11:33.884Z,102586.00
2023-01-28T16:14:43.655Z,102590.41
2023-01-28T16:17:49.189Z,102603.56
2023-01-28T16:20:50.976Z,102610.56
2023-01-28T16:23:59.905Z,102609.72
2023-01-28T16:27:07.155Z,102614.09
2023-01-28T16:30:11.379Z,102614.97
2023-01-28T16:33:20.671Z,102618.38
2023-01-28T16:36:22.178Z,102614.81
2023-01-28T16:39:23.784Z,102616.56
2023-01-28T16:42:25.356Z,102612.16
2023-01-28T16:45:27.078Z,102622.69
2023-01-28T16:48:30.519Z,102621.81
2023-01-28T16:51:32.497Z,102616.59
2023-01-28T16:54:34.727Z,102620.13
2023-01-28T16:57:38.232Z,102621.88
2023-01-28T17:00:39.929Z,102625.38
2023-01-28T17:03:42.242Z,102620.13
2023-01-28T17:06:45.233Z,102628.00
2023-01-28T17:09:46.841Z,102616.59
2023-01-28T17:12:48.913Z,102613.97
2023-01-28T17:15:51.045Z,102606.97
2023-01-28T17:18:53.441Z,102603.47
2023-01-28T17:21:54.952Z,102607.84
2023-01-28T17:24:56.559Z,102604.38
2023-01-28T17:27:58.137Z,102619.25
2023-01-28T17:31:00.056Z,102629.75
2023-01-28T17:34:02.573Z,102635.03
2023-01-28T17:37:04.128Z,102638.53
2023-01-28T17:40:06.371Z,102631.50
2023-01-28T17:43:08.020Z,102640.28
2023-01-28T17:46:14.829Z,102642.03
2023-01-28T17:49:16.451Z,102651.69
2023-01-28T17:52:18.086Z,102649.06
2023-01-28T17:55:19.664Z,102642.03
2023-01-28T17:58:21.243Z,102636.78
2023-01-28T18:01:24.969Z,102642.91
2023-01-28T18:04:26.583Z,102643.78
2023-01-28T18:07:28.152Z,102644.69
2023-01-28T18:10:29.950Z,102645.56
2023-01-28T18:13:31.787Z,102642.06
2023-01-28T18:16:33.381Z,102641.19
2023-01-28T18:19:35.236Z,102630.53
2023-01-28T18:22:36.901Z,102633.13
2023-01-28T18:25:38.454Z,102632.25
2023-01-28T18:28:39.974Z,102645.41
2023-01-28T18:31:41.562Z,102645.41
2023-01-28T18:34:43.222Z,102633.03
2023-01-28T18:37:44.727Z,102638.28
2023-01-28T18:40:46.705Z,102645.31
2023-01-28T18:43:48.241Z,102647.97
2023-01-28T18:46:51.030Z,102644.47
2023-01-28T18:49:52.609Z,102638.34
2023-01-28T18:52:54.351Z,102626.06
2023-01-28T18:55:55.893Z,102629.59
2023-01-28T18:59:01.889Z,102627.88
2023-01-28T19:02:03.593Z,102623.53
2023-01-28T19:05:05.445Z,102627.06
2023-01-28T19:08:08.969Z,102626.22
2023-01-28T19:11:10.637Z,102631.47
2023-01-28T19:14:14.385Z,102622.72
2023-01-28T19:17:15.937Z,102614.81
2023-01-28T19:20:18.284Z,102612.22
2023-01-28T19:23:20.119Z,102605.22
2023-01-28T19:26:22.565Z,102602.59
2023-01-28T19:29:25.615Z,102599.09
2023-01-28T19:32:27.956Z,102600.88
2023-01-28T19:35:29.516Z,102598.22
2023-01-28T19:38:31.109Z,102595.59
2023-01-28T19:41:32.885Z,102588.56
2023-01-28T19:44:34.552Z,102600.88
2023-01-28T19:47:36.045Z,102603.53
2023-01-28T19:50:37.592Z,102601.75
2023-01-28T19:53:40.666Z,102597.38
2023-01-28T19:56:42.265Z,102600.00
2023-01-28T19:59:43.826Z,102604.38
2023-01-28T20:02:49.711Z,102597.38
2023-01-28T20:05:51.251Z,102593.00
2023-01-28T20:08:54.787Z,102590.41
2023-01-28T20:11:56.357Z,102584.25
2023-01-28T20:14:58.197Z,102588.66
2023-01-28T20:17:59.749Z,102593.03
2023-01-28T20:21:01.858Z,102599.16
2023-01-28T20:24:04.826Z,102595.69
2023-01-28T20:27:06.613Z,102593.94
2023-01-28T20:30:09.122Z,102593.06
2023-01-28T20:33:10.740Z,102592.19
2023-01-28T20:36:13.914Z,102586.91
2023-01-28T20:39:15.646Z,102587.78
2023-01-28T20:42:17.260Z,102592.22
2023-01-28T20:45:18.946Z,102586.94
2023-01-28T20:48:20.491Z,102588.69
2023-01-28T20:51:24.765Z,102584.28
2023-01-28T20:54:26.317Z,102581.66
2023-01-28T20:57:27.886Z,102572.00
2023-01-28T21:00:29.441Z,102572.00
2023-01-28T21:03:31.208Z,102584.28
2023-01-28T21:06:33.278Z,102581.66
2023-01-28T21:09:35.178Z,102576.38
2023-01-28T21:12:36.722Z,102585.16
2023-01-28T21:15:38.817Z,102578.16
2023-01-28T21:18:40.497Z,102577.28
2023-01-28T21:21:42.950Z,102574.63
2023-01-28T21:24:46.208Z,102580.78
2023-01-28T21:27:48.697Z,102576.38
2023-01-28T21:30:50.262Z,102588.66
2023-01-28T21:33:54.991Z,102580.75
2023-01-28T21:36:56.535Z,102591.25
2023-01-28T21:39:58.617Z,102579.75
2023-01-28T21:43:00.537Z,102578.81
2023-01-28T21:46:03.120Z,102565.69
2023-01-28T21:49:08.225Z,102567.44
2023-01-28T21:52:09.849Z,102574.50
2023-01-28T21:55:11.392Z,102568.34
2023-01-28T21:58:31.486Z,102560.47
2023-01-28T22:01:33.114Z,102551.75
2023-01-28T22:04:51.757Z,102569.31
2023-01-28T22:07:53.255Z,102567.59
2023-01-28T22:10:55.360Z,102561.44
2023-01-28T22:13:56.906Z,102560.56
2023-01-28T22:16:58.615Z,102568.44
2023-01-28T22:20:00.286Z,102553.53
2023-01-28T22:23:01.829Z,102554.38
2023-01-28T22:26:03.502Z,102544.75
2023-01-28T22:29:05.511Z,102537.72
2023-01-28T22:32:07.550Z,102535.97
2023-01-28T22:35:09.309Z,102529.88
2023-01-28T22:38:11.089Z,102523.75
2023-01-28T22:41:19.286Z,102520.22
2023-01-28T22:44:21.009Z,102508.84
2023-01-28T22:47:22.563Z,102512.41
2023-01-28T22:50:24.177Z,102501.91
2023-01-28T22:53:25.673Z,102508.97
2023-01-28T22:56:28.689Z,102508.09
2023-01-28T22:59:30.286Z,102504.63
2023-01-28T23:02:31.889Z,102501.13
2023-01-28T23:05:33.691Z,102511.66
2023-01-28T23:08:35.255Z,102510.78
2023-01-28T23:11:36.892Z,102503.78
2023-01-28T23:14:56.978Z,102505.47
2023-01-28T23:18:16.950Z,102510.56
2023-01-28T23:21:41.535Z,102519.31
2023-01-28T23:24:43.136Z,102509.69
2023-01-28T23:27:44.840Z,102513.19
2023-01-28T23:30:46.399Z,102521.13
2023-01-28T23:33:48.044Z,102522.94
2023-01-28T23:36:50.591Z,102522.94
2023-01-28T23:39:52.158Z,102521.22
2023-01-28T23:42:55.418Z,102526.47
2023-01-28T23:45:56.966Z,102536.16
2023-01-28T23:48:58.551Z,102537.91
2023-01-28T23:52:01.416Z,102537.97
2023-01-28T23:55:03.554Z,102534.44
2023-01-28T23:58:05.364Z,102524.81
